createdAt,value
2022-11-26T00:00:50.779Z,97568.06
2022-11-26T00:03:19.104Z,97573.41
2022-11-26T00:05:49.430Z,97582.00
2022-11-26T00:08:20.944Z,97582.81
2022-11-26T00:10:50.923Z,97576.00
2022-11-26T00:13:21.347Z,97584.88
2022-11-26T00:15:51.068Z,97589.94
2022-11-26T00:18:19.767Z,97586.41
2022-11-26T00:20:51.445Z,97592.41
2022-11-26T00:23:21.497Z,97595.97
2022-11-26T00:25:51.764Z,97590.91
2022-11-26T00:28:29.588Z,97597.75
2022-11-26T00:31:00.591Z,97593.53
2022-11-26T00:33:29.034Z,97609.13
2022-11-26T00:35:59.208Z,97613.59
2022-11-26T00:38:27.298Z,97599.78
2022-11-26T00:40:54.889Z,97615.41
2022-11-26T00:43:22.536Z,97612.78
2022-11-26T00:45:50.517Z,97611.81
2022-11-26T00:48:19.501Z,97611.81
2022-11-26T00:50:49.584Z,97605.00
2022-11-26T00:53:20.095Z,97611.13
2022-11-26T00:55:49.929Z,97604.31
2022-11-26T00:58:24.911Z,97613.59
2022-11-26T01:01:00.794Z,97611.00
2022-11-26T01:03:30.353Z,97614.72
2022-11-26T01:05:59.701Z,97614.72
2022-11-26T01:08:31.097Z,97618.94
2022-11-26T01:10:59.327Z,97621.41
2022-11-26T01:13:27.750Z,97628.53
2022-11-26T01:15:55.940Z,97628.41
2022-11-26T01:18:24.271Z,97624.81
2022-11-26T01:20:53.174Z,97623.88
2022-11-26T01:23:21.153Z,97629.06
2022-11-26T01:25:49.154Z,97638.63
2022-11-26T01:28:18.663Z,97644.69
2022-11-26T01:30:46.622Z,97644.69
2022-11-26T01:33:14.184Z,97642.78
2022-11-26T01:35:41.767Z,97644.69
2022-11-26T01:38:13.846Z,97653.19
2022-11-26T01:40:56.140Z,97658.22
2022-11-26T01:43:27.847Z,97655.78
2022-11-26T01:45:56.055Z,97660.28
2022-11-26T01:48:27.347Z,97661.94
2022-11-26T01:51:04.288Z,97660.13
2022-11-26T01:53:43.068Z,97667.13
2022-11-26T01:56:31.760Z,97672.31
2022-11-26T01:59:07.691Z,97679.41
2022-11-26T02:01:35.827Z,97675.19
2022-11-26T02:04:16.583Z,97677.78
2022-11-26T02:06:45.919Z,97684.75
2022-11-26T02:09:15.181Z,97685.72
2022-11-26T02:11:43.386Z,97683.25
2022-11-26T02:14:16.926Z,97689.31
2022-11-26T02:16:57.742Z,97688.47
2022-11-26T02:19:55.810Z,97690.13
2022-11-26T02:22:43.383Z,97697.75
2022-11-26T02:25:20.480Z,97703.09
2022-11-26T02:28:21.123Z,97695.16
2022-11-26T02:30:57.375Z,97697.91
2022-11-26T02:33:30.283Z,97704.06
2022-11-26T02:36:02.675Z,97704.06
2022-11-26T02:38:31.123Z,97703.25
2022-11-26T02:40:58.659Z,97704.06
2022-11-26T02:43:27.490Z,97714.63
2022-11-26T02:46:00.707Z,97704.22
2022-11-26T02:48:32.809Z,97706.81
2022-11-26T02:51:04.848Z,97712.16
2022-11-26T02:53:34.904Z,97718.16
2022-11-26T02:56:06.516Z,97715.56
2022-11-26T02:58:35.392Z,97719.94
2022-11-26T03:01:10.088Z,97719.13
2022-11-26T03:03:41.582Z,97728.69
2022-11-26T03:06:11.741Z,97735.53
2022-11-26T03:08:40.097Z,97735.53
2022-11-26T03:11:07.905Z,97732.25
2022-11-26T03:13:35.480Z,97741.00
2022-11-26T03:16:05.316Z,97743.75
2022-11-26T03:18:32.939Z,97748.00
2022-11-26T03:21:01.251Z,97748.97
2022-11-26T03:23:28.833Z,97755.94
2022-11-26T03:25:56.372Z,97759.50
2022-11-26T03:28:23.905Z,97761.28
2022-11-26T03:30:51.598Z,97772.50
2022-11-26T03:33:20.691Z,97765.66
2022-11-26T03:35:49.182Z,97765.66
2022-11-26T03:38:18.039Z,97764.00
2022-11-26T03:40:45.790Z,97764.97
2022-11-26T03:43:13.292Z,97771.00
2022-11-26T03:45:40.890Z,97774.41
2022-11-26T03:48:08.450Z,97783.00
2022-11-26T03:50:37.527Z,97784.81
2022-11-26T03:53:05.074Z,97781.50
2022-11-26T03:55:32.604Z,97782.50
2022-11-26T03:58:00.102Z,97786.03
2022-11-26T04:00:27.778Z,97790.28
2022-11-26T04:02:55.383Z,97787.81
2022-11-26T04:05:22.976Z,97792.19
2022-11-26T04:07:52.005Z,97790.81
2022-11-26T04:10:19.788Z,97793.44
2022-11-26T04:12:47.309Z,97789.16
2022-11-26T04:15:14.906Z,97793.56
2022-11-26T04:17:42.425Z,97799.56
2022-11-26T04:20:10.633Z,97797.94
2022-11-26T04:22:38.160Z,97806.72
2022-11-26T04:25:07.739Z,97806.72
2022-11-26T04:27:35.274Z,97799.84
2022-11-26T04:30:02.812Z,97810.25
2022-11-26T04:32:30.262Z,97819.81
2022-11-26T04:34:57.808Z,97816.53
2022-11-26T04:37:25.340Z,97817.34
2022-11-26T04:39:52.854Z,97810.53
2022-11-26T04:42:21.684Z,97814.88
2022-11-26T04:44:49.177Z,97813.13
2022-11-26T04:47:16.832Z,97806.97
2022-11-26T04:49:44.455Z,97810.38
2022-11-26T04:52:12.116Z,97820.63
2022-11-26T04:54:39.816Z,97826.66
2022-11-26T04:57:07.582Z,97828.44
2022-11-26T04:59:36.399Z,97826.66
2022-11-26T05:02:04.024Z,97816.41
2022-11-26T05:04:31.540Z,97825.16
2022-11-26T05:06:59.039Z,97821.75
2022-11-26T05:09:26.643Z,97832.00
2022-11-26T05:11:54.219Z,97830.34
2022-11-26T05:14:21.796Z,97832.00
2022-11-26T05:16:50.698Z,97829.53
2022-11-26T05:19:18.315Z,97839.13
2022-11-26T05:21:45.873Z,97844.31
2022-11-26T05:24:13.406Z,97858.13
2022-11-26T05:26:40.969Z,97845.13
2022-11-26T05:29:08.532Z,97847.84
2022-11-26T05:31:36.086Z,97845.25
2022-11-26T05:34:05.175Z,97846.06
2022-11-26T05:36:32.673Z,97849.63
2022-11-26T05:39:00.204Z,97845.25
2022-11-26T05:41:27.691Z,97847.84
2022-11-26T05:43:55.218Z,97841.03
2022-11-26T05:46:22.915Z,97846.34
2022-11-26T05:48:50.396Z,97841.97
2022-11-26T05:51:19.316Z,97840.19
2022-11-26T05:53:46.812Z,97838.44
2022-11-26T05:56:14.403Z,97841.72
2022-11-26T05:58:43.338Z,97852.09
2022-11-26T06:01:11.471Z,97844.16
2022-11-26T06:03:39.578Z,97845.81
2022-11-26T06:06:07.626Z,97849.34
2022-11-26T06:08:36.489Z,97852.94
2022-11-26T06:11:04.012Z,97854.72
2022-11-26T06:13:31.586Z,97851.41
2022-11-26T06:15:59.569Z,97860.16
2022-11-26T06:18:27.099Z,97855.78
2022-11-26T06:20:54.600Z,97862.50
2022-11-26T06:23:22.104Z,97861.53
2022-11-26T06:25:51.017Z,97863.19
2022-11-26T06:28:18.546Z,97868.38
2022-11-26T06:30:46.587Z,97868.50
2022-11-26T06:33:14.460Z,97871.25
2022-11-26T06:35:41.954Z,97880.00
2022-11-26T06:38:09.850Z,97880.00
2022-11-26T06:40:37.390Z,97878.63
2022-11-26T06:43:06.228Z,97880.53
2022-11-26T06:45:35.730Z,97889.28
2022-11-26T06:48:03.376Z,97886.69
2022-11-26T06:50:30.906Z,97899.66
2022-11-26T06:52:58.434Z,97908.16
2022-11-26T06:55:26.009Z,97908.16
2022-11-26T06:57:53.536Z,97918.53
2022-11-26T07:00:23.049Z,97915.25
2022-11-26T07:02:50.639Z,97918.69
2022-11-26T07:05:18.457Z,97918.69
2022-11-26T07:07:46.069Z,97925.66
2022-11-26T07:10:13.664Z,97922.34
2022-11-26T07:12:41.156Z,97928.53
2022-11-26T07:15:10.047Z,97927.84
2022-11-26T07:17:38.966Z,97930.31
2022-11-26T07:20:08.047Z,97933.03
2022-11-26T07:22:35.712Z,97938.91
2022-11-26T07:25:04.494Z,97937.13
2022-11-26T07:27:33.594Z,97938.09
2022-11-26T07:30:01.156Z,97941.50
2022-11-26T07:32:30.656Z,97945.75
2022-11-26T07:35:00.478Z,97950.00
2022-11-26T07:37:27.991Z,97955.19
2022-11-26T07:39:55.768Z,97955.19
2022-11-26T07:42:23.329Z,97959.59
2022-11-26T07:44:50.937Z,97956.81
2022-11-26T07:47:18.468Z,97963.41
2022-11-26T07:49:46.046Z,97964.25
2022-11-26T07:52:14.990Z,97971.91
2022-11-26T07:54:42.901Z,97973.56
2022-11-26T07:57:11.247Z,97982.06
2022-11-26T07:59:38.740Z,97985.34
2022-11-26T08:02:06.301Z,97985.34
2022-11-26T08:04:33.838Z,97989.44
2022-11-26T08:07:23.249Z,97994.66
2022-11-26T08:09:53.483Z,97992.88
2022-11-26T08:12:21.070Z,97991.91
2022-11-26T08:14:48.609Z,97995.34
2022-11-26T08:17:16.128Z,98003.13
2022-11-26T08:19:43.682Z,98007.50
2022-11-26T08:22:11.261Z,98009.44
2022-11-26T08:24:40.877Z,98012.03
2022-11-26T08:27:08.590Z,98008.34
2022-11-26T08:29:37.194Z,98017.63
2022-11-26T08:32:05.192Z,98014.91
2022-11-26T08:34:33.008Z,98012.31
2022-11-26T08:37:00.719Z,98019.03
2022-11-26T08:39:28.307Z,98029.44
2022-11-26T08:41:57.208Z,98030.94
2022-11-26T08:44:24.837Z,98028.06
2022-11-26T08:46:52.616Z,98032.31
2022-11-26T08:49:20.378Z,98031.22
2022-11-26T08:51:48.048Z,98030.13
2022-11-26T08:54:15.592Z,98024.00
2022-11-26T08:56:43.184Z,98034.41
2022-11-26T08:59:12.075Z,98034.25
2022-11-26T09:01:39.960Z,98034.81
2022-11-26T09:04:07.607Z,98039.88
2022-11-26T09:06:37.595Z,98046.75
2022-11-26T09:09:17.269Z,98044.03
2022-11-26T09:11:48.140Z,98050.16
2022-11-26T09:14:19.350Z,98048.41
2022-11-26T09:16:47.638Z,98046.50
2022-11-26T09:19:16.055Z,98048.00
2022-11-26T09:21:44.119Z,98051.31
2022-11-26T09:24:11.849Z,98057.31
2022-11-26T09:26:39.698Z,98049.53
2022-11-26T09:29:07.377Z,98060.75
2022-11-26T09:31:42.752Z,98063.47
2022-11-26T09:34:22.820Z,98062.53
2022-11-26T09:36:50.408Z,98051.16
2022-11-26T09:39:18.526Z,98051.16
2022-11-26T09:41:51.160Z,98056.22
2022-11-26T09:44:26.298Z,98053.63
2022-11-26T09:47:12.867Z,98053.50
2022-11-26T09:49:50.014Z,98051.72
2022-11-26T09:52:21.073Z,98053.50
2022-11-26T09:54:51.312Z,98045.41
2022-11-26T09:57:24.129Z,98048.59
2022-11-26T09:59:52.656Z,98050.09
2022-11-26T10:02:22.017Z,98052.00
2022-11-26T10:04:49.875Z,98046.81
2022-11-26T10:07:40.671Z,98051.19
2022-11-26T10:10:17.432Z,98050.91
2022-11-26T10:13:18.022Z,98052.41
2022-11-26T10:15:57.424Z,98052.28
2022-11-26T10:18:37.119Z,98051.34
2022-11-26T10:21:32.425Z,98050.38
2022-11-26T10:24:15.735Z,98046.81
2022-11-26T10:26:44.523Z,98048.47
2022-11-26T10:29:22.391Z,98050.25
2022-11-26T10:31:51.857Z,98057.78
2022-11-26T10:34:29.312Z,98052.44
2022-11-26T10:36:58.035Z,98046.97
2022-11-26T10:39:25.574Z,98043.97
2022-11-26T10:41:53.305Z,98044.41
2022-11-26T10:44:33.757Z,98045.38
2022-11-26T10:47:21.435Z,98039.91
2022-11-26T10:49:52.027Z,98033.03
2022-11-26T10:52:24.441Z,98031.91
2022-11-26T10:55:08.872Z,98020.72
2022-11-26T10:57:38.692Z,98020.09
2022-11-26T11:00:07.844Z,98020.03
2022-11-26T11:02:39.175Z,98018.19
2022-11-26T11:05:10.698Z,98026.50
2022-11-26T11:07:43.968Z,98034.88
2022-11-26T11:10:18.752Z,98029.47
2022-11-26T11:12:50.379Z,98022.75
2022-11-26T11:15:24.033Z,98019.47
2022-11-26T11:17:57.576Z,98018.66
2022-11-26T11:20:38.009Z,98016.00
2022-11-26T11:23:18.118Z,98021.16
2022-11-26T11:25:48.994Z,98021.56
2022-11-26T11:28:20.788Z,98016.72
2022-11-26T11:31:00.291Z,98016.53
2022-11-26T11:33:29.644Z,98018.53
2022-11-26T11:36:05.041Z,98017.72
2022-11-26T11:38:34.461Z,98014.94
2022-11-26T11:41:05.927Z,98008.53
2022-11-26T11:43:37.791Z,98002.16
2022-11-26T11:46:19.205Z,98004.78
2022-11-26T11:48:59.051Z,97998.38
2022-11-26T11:51:38.863Z,98012.94
2022-11-26T11:54:18.532Z,98006.88
2022-11-26T11:56:52.446Z,98008.16
2022-11-26T12:00:11.963Z,98009.47
2022-11-26T12:03:04.869Z,98006.44
2022-11-26T12:05:43.965Z,98008.03
2022-11-26T12:08:27.916Z,98005.84
2022-11-26T12:11:06.656Z,98006.28
2022-11-26T12:13:42.740Z,98006.56
2022-11-26T12:16:14.092Z,98009.44
2022-11-26T12:18:47.141Z,97999.88
2022-11-26T12:21:17.059Z,98005.38
2022-11-26T12:23:54.363Z,97999.25
2022-11-26T12:26:28.527Z,98003.53
2022-11-26T12:29:03.487Z,98005.16
2022-11-26T12:31:37.591Z,98001.28
2022-11-26T12:34:11.328Z,97993.63
2022-11-26T12:36:46.311Z,97984.50
2022-11-26T12:39:23.468Z,97993.97
2022-11-26T12:41:57.368Z,97996.09
2022-11-26T12:44:31.317Z,97998.03
2022-11-26T12:47:10.935Z,97997.69
2022-11-26T12:49:46.678Z,98002.69
2022-11-26T12:52:29.520Z,98007.88
2022-11-26T12:55:03.233Z,98002.94
2022-11-26T12:57:37.308Z,98003.06
2022-11-26T13:00:11.471Z,98002.53
2022-11-26T13:02:42.469Z,98002.53
2022-11-26T13:05:19.419Z,98006.78
2022-11-26T13:08:03.793Z,98003.19
2022-11-26T13:10:42.413Z,97999.63
2022-11-26T13:13:18.697Z,98005.53
2022-11-26T13:15:50.996Z,97997.22
2022-11-26T13:18:25.151Z,97988.94
2022-11-26T13:21:05.990Z,97990.53
2022-11-26T13:23:48.239Z,97990.25
2022-11-26T13:26:29.876Z,97985.84
2022-11-26T13:29:23.088Z,97986.66
2022-11-26T13:32:13.093Z,97987.66
2022-11-26T13:34:59.545Z,97980.75
2022-11-26T13:37:55.997Z,97984.19
2022-11-26T13:40:44.304Z,97974.59
2022-11-26T13:43:38.546Z,97972.94
2022-11-26T13:46:13.216Z,97976.66
2022-11-26T13:48:52.787Z,97983.69
2022-11-26T13:51:27.622Z,97980.41
2022-11-26T13:54:02.036Z,97984.81
2022-11-26T13:56:32.834Z,97977.13
2022-11-26T13:59:05.598Z,97996.38
2022-11-26T14:01:36.758Z,97992.81
2022-11-26T14:04:07.793Z,97989.84
2022-11-26T14:06:35.814Z,97997.81
2022-11-26T14:09:05.607Z,97997.81
2022-11-26T14:11:56.931Z,98003.34
2022-11-26T14:14:37.613Z,97994.00
2022-11-26T14:17:14.608Z,98000.81
2022-11-26T14:20:06.357Z,98002.09
2022-11-26T14:22:35.803Z,97999.13
2022-11-26T14:25:06.582Z,97995.31
2022-11-26T14:27:35.562Z,97997.44
2022-11-26T14:30:18.109Z,97995.09
2022-11-26T14:32:53.082Z,97996.38
2022-11-26T14:35:30.658Z,98004.50
2022-11-26T14:38:01.673Z,98003.06
2022-11-26T14:40:30.925Z,98004.66
2022-11-26T14:43:16.596Z,98005.53
2022-11-26T14:45:47.862Z,98003.50
2022-11-26T14:48:23.758Z,98010.13
2022-11-26T14:50:51.950Z,98005.34
2022-11-26T14:53:21.734Z,97997.47
2022-11-26T14:55:51.048Z,98010.53
2022-11-26T14:58:20.896Z,97998.19
2022-11-26T15:01:07.720Z,97994.25
2022-11-26T15:03:35.574Z,98000.56
2022-11-26T15:06:03.372Z,98008.13
2022-11-26T15:08:30.916Z,98009.41
2022-11-26T15:11:01.835Z,98013.78
2022-11-26T15:13:32.621Z,98010.34
2022-11-26T15:16:01.694Z,98016.81
2022-11-26T15:18:33.385Z,98017.66
2022-11-26T15:21:03.137Z,98011.41
2022-11-26T15:23:32.843Z,98011.66
2022-11-26T15:26:01.211Z,98015.50
2022-11-26T15:28:29.120Z,98009.38
2022-11-26T15:30:59.015Z,98017.91
2022-11-26T15:33:28.698Z,98018.31
2022-11-26T15:35:57.846Z,98013.97
2022-11-26T15:38:27.461Z,98021.63
2022-11-26T15:40:57.508Z,98020.00
2022-11-26T15:43:30.466Z,98014.94
2022-11-26T15:46:00.655Z,98014.00
2022-11-26T15:48:50.990Z,98017.25
2022-11-26T15:51:33.784Z,98008.38
2022-11-26T15:54:03.842Z,98019.47
2022-11-26T15:56:35.078Z,98014.25
2022-11-26T15:59:06.629Z,98004.66
2022-11-26T16:01:37.374Z,98005.59
2022-11-26T16:04:06.465Z,98007.34
2022-11-26T16:06:37.624Z,98010.03
2022-11-26T16:09:26.318Z,98010.00
2022-11-26T16:12:00.162Z,98003.25
2022-11-26T16:14:33.131Z,97998.69
2022-11-26T16:17:07.968Z,98003.31
2022-11-26T16:19:37.370Z,98007.38
2022-11-26T16:22:07.259Z,98008.75
2022-11-26T16:24:38.678Z,98007.34
2022-11-26T16:27:24.575Z,98008.69
2022-11-26T16:29:52.107Z,98002.09
2022-11-26T16:32:20.114Z,98005.06
2022-11-26T16:34:47.719Z,98009.13
2022-11-26T16:37:21.430Z,98012.34
2022-11-26T16:39:49.963Z,98017.38
2022-11-26T16:42:19.213Z,98013.06
2022-11-26T16:44:46.930Z,98015.91
2022-11-26T16:47:19.801Z,98014.00
2022-11-26T16:49:47.300Z,98012.22
2022-11-26T16:52:17.718Z,98006.34
2022-11-26T16:54:47.214Z,98006.47
2022-11-26T16:57:17.408Z,98010.28
2022-11-26T16:59:46.418Z,98011.47
2022-11-26T17:02:17.411Z,98014.56
2022-11-26T17:04:45.249Z,98014.81
2022-11-26T17:07:14.980Z,98010.72
2022-11-26T17:09:43.633Z,98007.53
2022-11-26T17:12:18.021Z,98009.53
2022-11-26T17:14:46.285Z,98006.63
2022-11-26T17:17:20.363Z,98007.09
2022-11-26T17:19:51.501Z,98012.81
2022-11-26T17:22:20.163Z,98011.16
2022-11-26T17:24:47.693Z,98010.22
2022-11-26T17:27:18.717Z,98015.41
2022-11-26T17:29:46.836Z,98012.09
2022-11-26T17:32:17.001Z,98015.88
2022-11-26T17:34:45.380Z,98015.88
2022-11-26T17:37:15.602Z,98013.41
2022-11-26T17:39:43.793Z,98008.47
2022-11-26T17:42:11.293Z,98002.81
2022-11-26T17:44:40.150Z,98011.66
2022-11-26T17:47:17.719Z,98011.91
2022-11-26T17:49:46.280Z,98008.84
2022-11-26T17:52:13.789Z,98016.19
2022-11-26T17:54:41.685Z,98007.94
2022-11-26T17:57:11.202Z,98014.31
2022-11-26T17:59:40.901Z,98019.03
2022-11-26T18:02:09.317Z,98018.56
2022-11-26T18:04:36.989Z,98014.56
2022-11-26T18:07:07.820Z,98017.16
2022-11-26T18:09:35.860Z,98023.28
2022-11-26T18:12:04.471Z,98025.16
2022-11-26T18:14:35.458Z,98027.75
2022-11-26T18:17:05.724Z,98026.09
2022-11-26T18:19:33.244Z,98026.94
2022-11-26T18:22:00.767Z,98026.69
2022-11-26T18:24:28.304Z,98031.50
2022-11-26T18:26:56.791Z,98015.50
2022-11-26T18:29:24.887Z,98015.72
2022-11-26T18:31:52.831Z,98024.53
2022-11-26T18:34:22.115Z,98024.19
2022-11-26T18:36:53.663Z,98021.59
2022-11-26T18:39:21.659Z,98015.09
2022-11-26T18:41:49.198Z,98020.75
2022-11-26T18:44:16.731Z,98015.03
2022-11-26T18:46:44.501Z,98014.19
2022-11-26T18:49:12.075Z,98010.66
2022-11-26T18:51:40.932Z,98008.16
2022-11-26T18:54:08.454Z,98011.13
2022-11-26T18:56:36.364Z,98008.91
2022-11-26T18:59:03.835Z,98009.25
2022-11-26T19:01:32.849Z,98007.03
2022-11-26T19:04:00.449Z,98014.00
2022-11-26T19:06:30.352Z,98014.22
2022-11-26T19:09:01.035Z,98010.09
2022-11-26T19:11:29.126Z,98001.41
2022-11-26T19:13:58.065Z,98011.50
2022-11-26T19:16:26.470Z,98009.63
2022-11-26T19:18:54.415Z,98012.91
2022-11-26T19:21:24.115Z,98008.66
2022-11-26T19:23:52.354Z,98018.09
2022-11-26T19:26:22.312Z,98012.22
2022-11-26T19:28:50.798Z,98005.72
2022-11-26T19:31:20.156Z,98002.31
2022-11-26T19:33:48.906Z,98006.56
2022-11-26T19:36:17.879Z,98004.44
2022-11-26T19:38:46.476Z,97997.38
2022-11-26T19:41:14.011Z,97989.00
2022-11-26T19:43:43.426Z,97984.78
2022-11-26T19:46:12.822Z,97986.41
2022-11-26T19:48:42.234Z,97974.41
2022-11-26T19:51:11.264Z,97975.50
2022-11-26T19:53:38.976Z,97978.28
2022-11-26T19:56:11.817Z,97969.97
2022-11-26T19:58:39.212Z,97983.72
2022-11-26T20:01:09.941Z,97978.91
2022-11-26T20:03:38.056Z,97978.91
2022-11-26T20:06:07.229Z,97979.72
2022-11-26T20:08:35.220Z,97984.66
2022-11-26T20:11:02.870Z,97982.22
2022-11-26T20:13:30.441Z,97983.25
2022-11-26T20:15:58.011Z,97979.94
2022-11-26T20:18:27.313Z,97981.22
2022-11-26T20:20:59.119Z,97976.31
2022-11-26T20:23:27.296Z,97979.09
2022-11-26T20:25:55.437Z,97975.59
2022-11-26T20:28:23.529Z,97969.56
2022-11-26T20:30:51.724Z,97974.03
2022-11-26T20:33:19.491Z,97976.75
2022-11-26T20:35:48.355Z,97979.22
2022-11-26T20:38:15.846Z,97973.81
2022-11-26T20:40:44.069Z,97973.94
2022-11-26T20:43:11.727Z,97972.66
2022-11-26T20:45:39.481Z,97976.28
2022-11-26T20:48:07.346Z,97964.41
2022-11-26T20:50:34.893Z,97967.22
2022-11-26T20:53:03.846Z,97969.22
2022-11-26T20:55:31.403Z,97965.09
2022-11-26T20:57:58.922Z,97964.63
2022-11-26T21:00:27.791Z,97962.16
2022-11-26T21:02:55.542Z,97960.28
2022-11-26T21:05:23.613Z,97951.69
2022-11-26T21:07:51.819Z,97942.50
2022-11-26T21:10:25.070Z,97940.84
2022-11-26T21:12:52.584Z,97942.50
2022-11-26T21:15:20.083Z,97937.34
2022-11-26T21:17:47.689Z,97935.94
2022-11-26T21:20:15.726Z,97943.78
2022-11-26T21:22:43.244Z,97950.03
2022-11-26T21:25:10.944Z,97942.38
2022-11-26T21:27:39.917Z,97944.84
2022-11-26T21:30:08.672Z,97942.97
2022-11-26T21:32:36.240Z,97947.19
2022-11-26T21:35:03.756Z,97951.66
2022-11-26T21:37:31.259Z,97953.44
2022-11-26T21:39:58.784Z,97963.94
2022-11-26T21:42:26.310Z,97959.69
2022-11-26T21:44:55.163Z,97966.28
2022-11-26T21:47:22.654Z,97952.97
2022-11-26T21:49:50.214Z,97956.03
2022-11-26T21:52:17.784Z,97956.88
2022-11-26T21:54:45.335Z,97946.38
2022-11-26T21:57:12.889Z,97956.88
2022-11-26T21:59:40.737Z,97964.16
2022-11-26T22:02:12.982Z,97964.41
2022-11-26T22:04:40.664Z,97963.78
2022-11-26T22:07:08.460Z,97968.16
2022-11-26T22:09:36.700Z,97972.63
2022-11-26T22:12:04.305Z,97970.97
2022-11-26T22:14:31.829Z,97969.91
2022-11-26T22:16:59.314Z,97966.28
2022-11-26T22:19:28.179Z,97968.63
2022-11-26T22:21:55.802Z,97967.69
2022-11-26T22:24:23.306Z,97966.03
2022-11-26T22:26:50.816Z,97966.03
2022-11-26T22:29:20.121Z,97964.16
2022-11-26T22:31:48.526Z,97972.88
2022-11-26T22:34:18.509Z,97966.03
2022-11-26T22:36:47.448Z,97967.91
2022-11-26T22:39:17.375Z,97965.56
2022-11-26T22:41:45.968Z,97967.53
2022-11-26T22:44:14.351Z,97964.13
2022-11-26T22:46:41.900Z,97959.91
2022-11-26T22:49:12.834Z,97959.56
2022-11-26T22:51:40.685Z,97971.06
2022-11-26T22:54:12.849Z,97966.97
2022-11-26T22:56:40.843Z,97970.00
2022-11-26T22:59:11.781Z,97956.69
2022-11-26T23:01:39.363Z,97957.75
2022-11-26T23:04:09.127Z,97959.03
2022-11-26T23:06:37.538Z,97965.34
2022-11-26T23:09:07.250Z,97959.81
2022-11-26T23:11:37.684Z,97964.38
2022-11-26T23:14:07.465Z,97966.50
2022-11-26T23:16:36.187Z,97957.41
2022-11-26T23:19:04.749Z,97946.81
2022-11-26T23:21:35.246Z,97955.03
2022-11-26T23:24:02.852Z,97952.97
2022-11-26T23:26:32.816Z,97944.13
2022-11-26T23:29:03.297Z,97949.97
2022-11-26T23:31:32.677Z,97947.09
2022-11-26T23:34:00.632Z,97941.53
2022-11-26T23:36:29.116Z,97946.13
2022-11-26T23:38:57.239Z,97953.88
2022-11-26T23:41:24.756Z,97956.22
2022-11-26T23:43:52.243Z,97947.56
2022-11-26T23:46:23.448Z,97948.28
2022-11-26T23:48:51.884Z,97936.28
2022-11-26T23:51:24.037Z,97932.25
2022-11-26T23:53:53.332Z,97920.50
2022-11-26T23:56:22.722Z,97921.44
2022-11-26T23:58:51.191Z,97920.72
